Time;durP1;ratioP1;P1;durP2;ratioP2;P2;SDS_P1;SDS_P2;PMS_P1;PMS_P2;Temp;Humidity;BMP_temperature;BMP_pressure;BME280_temperature;BME280_humidity;BME280_pressure;Samples;Min_cycle;Max_cycle;Signal;HPM_P1;HPM_P2
2021/05/02 00:01:53;;;;;;;28.08;15.57;;;;;;;6.43;88.84;98307.00;5053951;28;20637;-71
2021/05/02 00:04:18;;;;;;;25.13;15.68;;;;;;;6.47;89.11;98316.31;5047652;28;20032;-71
2021/05/02 00:06:44;;;;;;;30.13;16.30;;;;;;;6.32;89.19;98287.66;5061502;28;20025;-71
2021/05/02 00:09:09;;;;;;;26.40;15.95;;;;;;;6.38;88.74;98310.22;5058659;28;20028;-71
2021/05/02 00:11:35;;;;;;;29.20;16.38;;;;;;;6.36;89.12;98305.03;5069713;28;20665;-71
2021/05/02 00:14:02;;;;;;;26.23;16.80;;;;;;;6.33;89.25;98310.78;5045409;28;20025;-73
2021/05/02 00:16:28;;;;;;;29.27;16.10;;;;;;;6.44;88.85;98319.38;5035970;28;20092;-72
2021/05/02 00:18:53;;;;;;;27.15;15.68;;;;;;;6.24;88.89;98305.75;5052043;28;20478;-72
2021/05/02 00:21:19;;;;;;;24.90;15.73;;;;;;;6.37;88.50;98330.06;5048507;28;20017;-72
2021/05/02 00:23:44;;;;;;;25.85;15.75;;;;;;;6.29;88.43;98317.59;5052985;28;20044;-71
2021/05/02 00:26:10;;;;;;;32.08;16.98;;;;;;;6.30;89.31;98321.09;5052889;28;20064;-72
2021/05/02 00:28:43;;;;;;;25.92;15.80;;;;;;;6.29;89.49;98322.94;5040085;28;20052;-71
2021/05/02 00:31:09;;;;;;;31.40;16.73;;;;;;;6.28;89.35;98320.44;5047395;28;20025;-72
2021/05/02 00:33:35;;;;;;;23.58;15.80;;;;;;;6.33;89.53;98343.03;5033306;28;20036;-72
2021/05/02 00:36:02;;;;;;;24.85;15.63;;;;;;;6.26;89.40;98331.41;5032986;28;20080;-71
2021/05/02 00:38:29;;;;;;;24.40;15.68;;;;;;;6.09;88.88;98313.81;5037723;28;20107;-71
2021/05/02 00:40:57;;;;;;;24.80;15.23;;;;;;;6.39;89.46;98354.06;5030442;28;20021;-72
2021/05/02 00:43:34;;;;;;;22.95;15.05;;;;;;;6.23;88.90;98339.81;5060277;28;20137;-71
2021/05/02 00:46:23;;;;;;;25.30;16.40;;;;;;;6.23;89.04;98347.03;5061514;28;20033;-72
2021/05/02 00:49:03;;;;;;;25.17;15.20;;;;;;;6.05;88.79;98321.41;5051206;28;20025;-72
2021/05/02 00:51:37;;;;;;;28.50;16.48;;;;;;;6.25;88.89;98351.19;5051124;28;20029;-72
2021/05/02 00:54:05;;;;;;;27.75;16.60;;;;;;;6.22;87.86;98350.75;5051044;28;20056;-72
2021/05/02 00:56:35;;;;;;;27.20;15.20;;;;;;;6.10;87.32;98353.91;5061444;28;20027;-72
2021/05/02 00:59:05;;;;;;;28.73;16.65;;;;;;;6.14;87.81;98362.44;5065593;28;20047;-72
2021/05/02 01:01:37;;;;;;;25.73;15.80;;;;;;;6.12;88.36;98362.59;5040412;28;20035;-72
2021/05/02 01:04:04;;;;;;;29.40;18.27;;;;;;;6.04;88.75;98359.19;5048336;28;20025;-72
2021/05/02 01:06:31;;;;;;;29.15;17.23;;;;;;;6.09;89.19;98373.72;5033790;28;20458;-71
2021/05/02 01:09:00;;;;;;;30.30;18.20;;;;;;;6.09;88.83;98368.34;5046104;28;20033;-72
2021/05/02 01:11:27;;;;;;;30.55;18.70;;;;;;;6.07;89.30;98375.75;5054097;28;20077;-72
2021/05/02 01:13:58;;;;;;;32.95;17.75;;;;;;;6.01;89.81;98381.03;5058852;28;20029;-72
2021/05/02 01:16:26;;;;;;;31.92;18.70;;;;;;;5.97;89.92;98377.88;5054477;28;20021;-72
2021/05/02 01:18:54;;;;;;;39.17;19.45;;;;;;;6.02;89.75;98382.69;5038094;28;20725;-71
2021/05/02 01:21:27;;;;;;;32.15;18.15;;;;;;;5.99;89.95;98383.06;5051648;28;20505;-71
2021/05/02 01:23:53;;;;;;;30.30;17.95;;;;;;;5.93;89.87;98385.47;5047765;28;20417;-71
2021/05/02 01:26:18;;;;;;;33.72;19.83;;;;;;;5.92;89.71;98375.72;5037763;28;20029;-71
2021/05/02 01:28:45;;;;;;;32.05;19.45;;;;;;;5.84;89.43;98374.97;5056615;28;20047;-72
2021/05/02 01:31:10;;;;;;;35.92;19.60;;;;;;;5.91;90.17;98398.19;5069906;28;20052;-72
2021/05/02 01:33:36;;;;;;;32.05;20.30;;;;;;;5.87;89.90;98396.91;5065965;28;20111;-72
2021/05/02 01:36:03;;;;;;;33.40;19.55;;;;;;;5.89;90.71;98397.56;5039248;28;20070;-72
2021/05/02 01:38:28;;;;;;;34.58;21.02;;;;;;;5.74;90.56;98394.03;5035841;28;20112;-71
2021/05/02 01:40:54;;;;;;;35.22;21.55;;;;;;;5.75;90.35;98397.53;5033998;28;20369;-72
2021/05/02 01:43:21;;;;;;;40.25;21.27;;;;;;;5.82;90.79;98410.06;5035274;28;20032;-72
2021/05/02 01:45:46;;;;;;;34.03;20.35;;;;;;;5.76;90.75;98415.31;5032030;28;20025;-72
2021/05/02 01:48:16;;;;;;;35.90;21.00;;;;;;;5.86;90.74;98415.88;5050940;28;20025;-72
2021/05/02 01:50:50;;;;;;;35.83;20.80;;;;;;;5.84;90.88;98397.28;5039338;28;20029;-72
2021/05/02 01:53:16;;;;;;;41.58;23.00;;;;;;;5.84;91.60;98416.09;5032418;28;20124;-72
2021/05/02 01:55:42;;;;;;;38.40;22.90;;;;;;;5.82;91.39;98398.50;5042973;28;20049;-72
2021/05/02 01:58:08;;;;;;;35.13;22.60;;;;;;;5.77;91.42;98390.97;5049570;28;20025;-69
2021/05/02 02:00:51;;;;;;;42.85;23.33;;;;;;;5.84;91.71;98410.72;5043570;28;20041;-70
2021/05/02 02:03:17;;;;;;;40.53;23.23;;;;;;;5.92;91.76;98410.63;5037439;28;20021;-70
2021/05/02 02:05:43;;;;;;;39.92;23.33;;;;;;;5.90;92.03;98428.78;5015810;28;20060;-70
2021/05/02 02:08:09;;;;;;;39.45;23.00;;;;;;;5.92;92.30;98425.88;5036651;28;20057;-70
2021/05/02 02:10:36;;;;;;;42.95;23.05;;;;;;;5.87;92.05;98415.72;5047182;28;20037;-70
2021/05/02 02:13:02;;;;;;;46.25;24.88;;;;;;;6.00;91.92;98438.44;5037167;28;20027;-70
2021/05/02 02:15:30;;;;;;;36.85;22.25;;;;;;;6.02;91.48;98431.84;5035606;28;20108;-70
2021/05/02 02:17:55;;;;;;;41.10;24.10;;;;;;;5.91;91.78;98446.53;5017176;28;20475;-70
2021/05/02 02:20:23;;;;;;;41.45;22.83;;;;;;;5.94;92.36;98445.38;5041574;28;20029;-70
2021/05/02 02:23:00;;;;;;;43.78;24.30;;;;;;;5.98;92.56;98453.91;5035193;28;20037;-70
2021/05/02 02:25:28;;;;;;;44.83;24.70;;;;;;;5.97;92.66;98439.63;5052481;28;20029;-69
2021/05/02 02:27:57;;;;;;;45.92;24.33;;;;;;;5.96;92.00;98437.13;5033456;28;20049;-70
2021/05/02 02:30:26;;;;;;;45.33;24.63;;;;;;;6.01;91.65;98448.16;5029988;28;20108;-70
2021/05/02 02:32:52;;;;;;;38.42;22.98;;;;;;;6.01;91.75;98453.53;5034695;28;20138;-70
2021/05/02 02:35:21;;;;;;;39.78;23.77;;;;;;;5.98;91.78;98445.84;5066075;28;20054;-69
2021/05/02 02:37:54;;;;;;;44.78;24.98;;;;;;;5.99;91.86;98458.25;5055372;28;20024;-70
2021/05/02 02:40:21;;;;;;;41.17;23.85;;;;;;;5.99;91.95;98458.25;5021905;28;20025;-70
2021/05/02 02:42:48;;;;;;;43.08;23.08;;;;;;;5.98;92.19;98465.47;5031797;28;20427;-70
2021/05/02 02:45:14;;;;;;;45.50;23.75;;;;;;;6.00;91.93;98457.22;5035139;28;20039;-70
2021/05/02 02:47:53;;;;;;;48.42;25.15;;;;;;;6.00;91.85;98467.97;5053497;28;20028;-70
2021/05/02 02:50:20;;;;;;;41.75;23.92;;;;;;;5.98;91.34;98468.16;5036636;28;20030;-70
2021/05/02 02:52:48;;;;;;;44.15;24.73;;;;;;;5.91;91.23;98457.28;5031484;28;20452;-72
2021/05/02 02:55:16;;;;;;;44.95;25.08;;;;;;;5.85;91.09;98465.25;5036640;28;20052;-72
2021/05/02 02:58:03;;;;;;;45.67;25.67;;;;;;;5.90;91.47;98471.72;5039725;28;20029;-72
2021/05/02 03:00:33;;;;;;;48.13;26.30;;;;;;;5.95;92.16;98478.41;5048551;28;20017;-72
2021/05/02 03:03:08;;;;;;;42.80;24.75;;;;;;;5.89;91.79;98480.81;5054003;28;20029;-72
2021/05/02 03:05:38;;;;;;;41.22;23.90;;;;;;;5.84;92.12;98477.84;5058259;28;20384;-72
2021/05/02 03:08:06;;;;;;;44.80;25.08;;;;;;;5.82;91.95;98474.50;5034196;28;20065;-72
2021/05/02 03:10:32;;;;;;;40.38;24.00;;;;;;;5.78;91.86;98462.44;5037521;28;20028;-72
2021/05/02 03:12:58;;;;;;;39.03;23.10;;;;;;;5.82;90.67;98470.97;5036391;28;20056;-71
2021/05/02 03:15:24;;;;;;;40.80;24.63;;;;;;;5.93;91.07;98498.25;5034051;28;20071;-70
2021/05/02 03:18:03;;;;;;;42.60;24.83;;;;;;;5.96;90.31;98501.59;5051875;28;20052;-71
2021/05/02 03:20:33;;;;;;;41.20;23.58;;;;;;;5.84;90.78;98493.94;5053657;28;20029;-70
2021/05/02 03:23:05;;;;;;;39.42;22.42;;;;;;;5.94;90.38;98504.44;5054931;28;20072;-70
2021/05/02 03:25:34;;;;;;;36.67;23.73;;;;;;;5.83;90.24;98499.47;5035529;28;20021;-70
2021/05/02 03:28:03;;;;;;;36.88;22.17;;;;;;;5.88;89.51;98500.59;5040462;28;20025;-72
2021/05/02 03:30:29;;;;;;;33.67;22.23;;;;;;;5.92;89.21;98518.03;5033510;28;20041;-70
2021/05/02 03:32:57;;;;;;;37.90;22.35;;;;;;;5.89;89.37;98521.09;5033961;28;20080;-70
2021/05/02 03:35:27;;;;;;;38.90;22.15;;;;;;;5.82;88.58;98524.66;5035272;28;20030;-70
2021/05/02 03:38:04;;;;;;;37.35;22.00;;;;;;;5.82;88.68;98513.94;5069060;28;20027;-70
2021/05/02 03:40:30;;;;;;;37.03;21.55;;;;;;;5.83;89.75;98527.16;5049874;28;20074;-72
2021/05/02 03:42:55;;;;;;;37.83;23.50;;;;;;;5.69;89.55;98519.91;5039974;28;20033;-70
2021/05/02 03:45:20;;;;;;;38.97;24.33;;;;;;;5.76;90.20;98542.28;5053337;28;20509;-68
2021/05/02 03:47:46;;;;;;;36.95;23.05;;;;;;;5.74;90.63;98530.06;5034852;28;20020;-68
2021/05/02 03:50:11;;;;;;;37.10;23.00;;;;;;;5.66;90.91;98534.50;5034926;28;20033;-68
2021/05/02 03:52:36;;;;;;;43.03;24.33;;;;;;;5.68;91.27;98539.69;5043126;28;20040;-71
2021/05/02 03:55:02;;;;;;;33.75;22.67;;;;;;;5.61;91.67;98544.09;5052993;28;20037;-68
2021/05/02 03:57:27;;;;;;;42.25;25.65;;;;;;;5.61;91.82;98544.09;5052760;28;20078;-68
2021/05/02 03:59:53;;;;;;;42.42;24.88;;;;;;;5.63;91.72;98550.09;5061351;28;20473;-68
2021/05/02 04:02:18;;;;;;;37.63;23.15;;;;;;;5.58;91.45;98557.84;5064537;28;20025;-69
2021/05/02 04:04:45;;;;;;;40.72;25.25;;;;;;;5.51;92.20;98543.50;5051842;28;20505;-68
2021/05/02 04:07:12;;;;;;;36.28;24.33;;;;;;;5.61;92.63;98555.66;5037716;28;20474;-70
2021/05/02 04:09:39;;;;;;;39.95;24.75;;;;;;;5.60;92.17;98551.28;5062647;28;20070;-68
2021/05/02 04:12:05;;;;;;;40.72;25.42;;;;;;;5.65;92.49;98564.19;5034804;28;20029;-68
2021/05/02 04:14:31;;;;;;;38.72;24.17;;;;;;;5.64;92.01;98563.38;5049855;28;20111;-68
2021/05/02 04:16:59;;;;;;;42.40;25.10;;;;;;;5.65;91.90;98564.19;5015130;28;20014;-68
2021/05/02 04:19:25;;;;;;;39.45;24.55;;;;;;;5.66;92.09;98566.72;5032525;28;20026;-68
2021/05/02 04:21:51;;;;;;;36.30;23.52;;;;;;;5.60;92.13;98555.84;5037160;28;20048;-68
2021/05/02 04:24:17;;;;;;;37.97;24.15;;;;;;;5.64;92.01;98567.91;5039008;28;20417;-68
2021/05/02 04:26:47;;;;;;;38.60;23.85;;;;;;;5.72;91.81;98581.25;5052103;28;20043;-68
2021/05/02 04:29:12;;;;;;;39.42;22.17;;;;;;;5.68;90.63;98582.63;5051719;28;20036;-68
2021/05/02 04:31:38;;;;;;;35.70;22.92;;;;;;;5.76;91.15;98587.09;5051955;28;20032;-69
2021/05/02 04:34:05;;;;;;;37.28;22.73;;;;;;;5.78;91.05;98583.22;5034185;28;20074;-70
2021/05/02 04:36:30;;;;;;;35.75;23.40;;;;;;;5.78;91.20;98575.16;5052321;28;20029;-68
2021/05/02 04:38:56;;;;;;;35.17;22.30;;;;;;;5.86;90.87;98591.22;5056349;28;20150;-68
2021/05/02 04:41:21;;;;;;;37.72;22.70;;;;;;;5.84;89.84;98587.03;5070199;28;20060;-68
2021/05/02 04:43:46;;;;;;;35.78;22.75;;;;;;;5.80;89.76;98583.88;5025957;28;20032;-68
2021/05/02 04:46:12;;;;;;;33.22;21.33;;;;;;;5.84;88.58;98597.78;5058514;28;20033;-69
2021/05/02 04:48:42;;;;;;;35.25;22.27;;;;;;;5.88;89.25;98612.53;5047524;28;20080;-68
2021/05/02 04:51:09;;;;;;;30.55;20.88;;;;;;;5.91;89.38;98612.19;5031981;28;20033;-68
2021/05/02 04:53:34;;;;;;;36.15;23.40;;;;;;;5.94;88.72;98614.53;5014377;28;20498;-68
2021/05/02 04:56:00;;;;;;;37.45;24.00;;;;;;;5.91;88.82;98613.00;5040406;28;20028;-68
2021/05/02 04:58:25;;;;;;;36.45;22.75;;;;;;;5.78;88.81;98602.03;5051779;28;20021;-68
2021/05/02 05:00:50;;;;;;;36.40;23.45;;;;;;;5.99;88.85;98619.38;5051746;28;20033;-69
2021/05/02 05:03:19;;;;;;;38.45;22.33;;;;;;;6.05;89.20;98624.88;5051635;28;20098;-67
2021/05/02 05:05:44;;;;;;;37.58;22.67;;;;;;;6.16;88.40;98637.06;5046593;28;20017;-69
2021/05/02 05:08:10;;;;;;;33.78;22.70;;;;;;;6.38;87.17;98639.91;5057999;28;20040;-68
2021/05/02 05:10:35;;;;;;;33.00;21.95;;;;;;;6.36;87.01;98632.84;5071271;28;20503;-68
2021/05/02 05:13:01;;;;;;;34.28;21.80;;;;;;;6.48;86.84;98637.81;5055785;28;20043;-68
2021/05/02 05:15:26;;;;;;;36.10;21.95;;;;;;;6.47;86.40;98638.81;5058155;28;20013;-70
2021/05/02 05:17:52;;;;;;;37.25;22.08;;;;;;;6.52;86.14;98642.63;5044536;28;20052;-68
2021/05/02 05:20:17;;;;;;;31.92;21.60;;;;;;;6.74;86.11;98635.53;5052229;28;20073;-68
2021/05/02 05:22:43;;;;;;;32.65;21.45;;;;;;;6.76;85.50;98646.94;5055289;28;20064;-67
2021/05/02 05:25:08;;;;;;;36.53;21.48;;;;;;;6.77;85.44;98645.91;5053525;28;20457;-67
2021/05/02 05:27:35;;;;;;;36.00;22.55;;;;;;;6.66;85.58;98643.69;5058469;28;20021;-70
2021/05/02 05:30:00;;;;;;;33.50;22.10;;;;;;;6.69;86.33;98666.69;5064280;28;20033;-70
2021/05/02 05:32:26;;;;;;;35.92;22.15;;;;;;;6.62;87.22;98644.22;5071580;28;20032;-70
2021/05/02 05:34:51;;;;;;;36.17;23.10;;;;;;;6.66;87.44;98645.53;5049484;28;20017;-70
2021/05/02 05:37:17;;;;;;;40.72;23.67;;;;;;;6.72;87.65;98655.56;5052860;28;20017;-71
2021/05/02 05:39:42;;;;;;;36.13;23.50;;;;;;;6.97;87.57;98661.56;5050472;28;20055;-70
2021/05/02 05:42:08;;;;;;;35.25;22.70;;;;;;;7.06;87.20;98659.59;5039650;28;20025;-70
2021/05/02 05:44:33;;;;;;;37.92;23.73;;;;;;;7.08;86.68;98669.16;5051198;28;20025;-70
2021/05/02 05:46:59;;;;;;;35.63;22.92;;;;;;;7.20;85.25;98656.94;5044675;28;20079;-71
2021/05/02 05:49:25;;;;;;;37.85;22.23;;;;;;;7.41;83.92;98668.78;5035970;28;20040;-69
2021/05/02 05:51:53;;;;;;;36.05;22.45;;;;;;;7.54;83.75;98668.13;5037980;28;20387;-70
2021/05/02 05:54:23;;;;;;;33.40;21.65;;;;;;;7.71;82.41;98666.06;5035503;28;20029;-70
2021/05/02 05:56:48;;;;;;;34.10;21.30;;;;;;;7.98;81.41;98675.28;5040475;28;20060;-70
2021/05/02 05:59:14;;;;;;;37.38;23.00;;;;;;;7.69;83.47;98671.63;5045229;28;20061;-70
2021/05/02 06:01:40;;;;;;;33.53;21.33;;;;;;;8.05;81.83;98671.66;5032504;28;20040;-69
2021/05/02 06:04:05;;;;;;;32.60;22.27;;;;;;;8.01;81.53;98678.44;5053819;28;20405;-69
2021/05/02 06:06:33;;;;;;;29.98;20.95;;;;;;;8.05;82.10;98679.72;5034219;28;20029;-69
2021/05/02 06:09:07;;;;;;;32.03;20.48;;;;;;;8.26;80.94;98683.47;5052989;28;20021;-69
2021/05/02 06:11:33;;;;;;;31.58;20.13;;;;;;;8.37;80.52;98682.13;5040944;28;20057;-70
2021/05/02 06:13:59;;;;;;;35.30;21.90;;;;;;;8.41;81.13;98687.00;5037894;28;20060;-70
2021/05/02 06:16:25;;;;;;;33.17;20.10;;;;;;;8.47;79.09;98680.81;5038391;28;20044;-70
2021/05/02 06:18:54;;;;;;;31.75;20.48;;;;;;;8.61;78.82;98680.94;5052166;28;20059;-70
2021/05/02 06:21:20;;;;;;;34.83;20.77;;;;;;;8.62;79.56;98682.59;5051924;28;20078;-71
2021/05/02 06:23:49;;;;;;;29.02;19.65;;;;;;;8.93;77.55;98676.84;5053059;28;20021;-70
2021/05/02 06:26:16;;;;;;;31.30;18.88;;;;;;;8.79;77.49;98681.31;5047770;28;20025;-71
2021/05/02 06:28:42;;;;;;;30.40;19.02;;;;;;;8.80;76.87;98693.75;5043667;28;20087;-71
2021/05/02 06:31:08;;;;;;;29.27;19.50;;;;;;;8.83;76.23;98690.69;5041682;28;20025;-70
2021/05/02 06:33:38;;;;;;;32.50;19.17;;;;;;;9.23;76.65;98682.88;5054202;28;20401;-70
2021/05/02 06:36:03;;;;;;;;;;;;;;;9.70;75.26;98692.09;5026744;28;20028;-70
2021/05/02 06:38:28;;;;;;;24.45;17.02;;;;;;;10.19;72.71;98684.78;5051916;28;19913;-70
2021/05/02 06:40:54;;;;;;;28.67;18.23;;;;;;;10.46;72.79;98697.38;5039975;28;20032;-71
2021/05/02 06:43:19;;;;;;;24.02;16.95;;;;;;;10.67;72.76;98701.75;5031989;28;20040;-70
2021/05/02 06:45:45;;;;;;;23.88;16.90;;;;;;;10.80;69.46;98697.41;5043081;28;20118;-70
2021/05/02 06:48:10;;;;;;;20.92;15.93;;;;;;;10.87;68.55;98698.22;5052373;28;20410;-71
2021/05/02 06:50:35;;;;;;;23.90;16.60;;;;;;;10.82;68.50;98698.00;5052724;28;20029;-71
2021/05/02 06:53:01;;;;;;;23.30;15.75;;;;;;;10.71;69.58;98694.06;5052696;28;20033;-74
2021/05/02 06:55:26;;;;;;;24.00;15.80;;;;;;;10.83;69.01;98689.69;5037501;28;20108;-73
2021/05/02 06:57:51;;;;;;;21.55;15.98;;;;;;;10.97;68.93;98707.59;5049165;28;20032;-72
2021/05/02 07:00:17;;;;;;;21.70;15.35;;;;;;;11.04;68.01;98704.06;5051603;28;20386;-71
2021/05/02 07:02:42;;;;;;;21.77;16.05;;;;;;;10.39;69.06;98703.78;5051748;28;20033;-70
2021/05/02 07:05:09;;;;;;;25.42;15.10;;;;;;;10.63;67.76;98703.19;5052515;28;20116;-71
2021/05/02 07:07:34;;;;;;;24.35;14.93;;;;;;;11.08;66.97;98711.56;5051514;28;20124;-71
2021/05/02 07:09:59;;;;;;;20.35;14.35;;;;;;;11.55;64.78;98706.94;5054354;28;20126;-70
2021/05/02 07:12:25;;;;;;;19.23;14.82;;;;;;;11.57;65.93;98710.22;5054139;28;20112;-70
2021/05/02 07:14:50;;;;;;;20.77;14.32;;;;;;;11.41;64.41;98705.28;5053228;28;20112;-70
2021/05/02 07:17:16;;;;;;;20.38;14.57;;;;;;;11.55;64.61;98709.63;5049688;28;20697;-71
2021/05/02 07:19:42;;;;;;;21.80;14.02;;;;;;;11.89;62.54;98713.09;5034173;28;20537;-68
2021/05/02 07:22:07;;;;;;;20.05;14.00;;;;;;;11.87;63.60;98717.91;5032868;28;20071;-68
2021/05/02 07:24:33;;;;;;;19.88;14.63;;;;;;;11.72;62.83;98699.16;5053542;28;20034;-70
2021/05/02 07:26:59;;;;;;;21.17;15.20;;;;;;;11.82;62.96;98717.69;5033150;28;20033;-70
2021/05/02 07:29:24;;;;;;;18.80;13.75;;;;;;;12.35;61.86;98722.09;5050947;28;20386;-70
2021/05/02 07:31:49;;;;;;;20.70;13.25;;;;;;;13.85;57.73;98716.69;5052249;28;20517;-74
2021/05/02 07:34:15;;;;;;;16.70;12.85;;;;;;;14.96;54.78;98725.50;5053219;28;20032;-73
2021/05/02 07:36:40;;;;;;;20.10;12.95;;;;;;;14.08;55.94;98729.59;5053555;28;20613;-73
2021/05/02 07:39:09;;;;;;;19.80;13.65;;;;;;;12.33;60.95;98725.00;5036256;28;20114;-72
2021/05/02 07:41:35;;;;;;;22.23;14.38;;;;;;;12.07;60.79;98721.38;5053037;28;20069;-70
2021/05/02 07:44:00;;;;;;;16.65;12.60;;;;;;;12.60;59.52;98730.28;5035780;28;20123;-70
2021/05/02 07:46:26;;;;;;;17.17;13.18;;;;;;;12.55;61.12;98735.53;5047798;28;20052;-69
2021/05/02 07:48:51;;;;;;;17.35;13.20;;;;;;;11.78;63.14;98743.53;5043622;28;20030;-69
2021/05/02 07:51:17;;;;;;;18.35;14.15;;;;;;;11.69;61.28;98725.88;5050734;28;20111;-69
2021/05/02 07:53:42;;;;;;;19.40;13.98;;;;;;;11.69;64.12;98744.84;5049478;28;20498;-70
2021/05/02 07:56:08;;;;;;;15.77;12.65;;;;;;;11.89;61.48;98729.34;5051799;28;20112;-71
2021/05/02 07:58:33;;;;;;;17.92;13.30;;;;;;;12.11;62.56;98743.47;5049514;28;20378;-71
2021/05/02 08:00:59;;;;;;;16.05;11.65;;;;;;;12.58;58.27;98737.84;5052382;28;20029;-70
2021/05/02 08:03:24;;;;;;;14.43;11.40;;;;;;;13.55;56.99;98738.34;5034521;28;20043;-71
2021/05/02 08:05:49;;;;;;;15.55;11.38;;;;;;;14.91;53.43;98728.09;5041504;28;20044;-70
2021/05/02 08:08:15;;;;;;;15.13;11.55;;;;;;;14.88;52.55;98742.16;5036520;28;20071;-70
2021/05/02 08:10:40;;;;;;;18.85;12.65;;;;;;;14.87;52.59;98741.31;5052074;28;20037;-70
2021/05/02 08:13:06;;;;;;;19.05;11.93;;;;;;;14.62;55.03;98733.31;5047188;28;20029;-70
2021/05/02 08:15:31;;;;;;;16.55;12.35;;;;;;;13.84;55.05;98753.09;5044927;28;20044;-70
2021/05/02 08:17:57;;;;;;;15.88;12.52;;;;;;;12.26;59.96;98763.03;5049961;28;20035;-70
2021/05/02 08:20:23;;;;;;;15.68;11.32;;;;;;;12.33;60.73;98762.97;5034378;28;20016;-70
2021/05/02 08:22:49;;;;;;;16.95;12.55;;;;;;;12.38;61.00;98762.34;5031354;28;20021;-70
2021/05/02 08:25:14;;;;;;;15.20;11.73;;;;;;;12.40;61.67;98758.38;5045971;28;20087;-69
2021/05/02 08:27:40;;;;;;;15.68;11.07;;;;;;;14.61;54.43;98758.88;5033358;28;20116;-70
2021/05/02 08:30:06;;;;;;;14.27;10.18;;;;;;;16.89;47.66;98751.00;5043281;28;20032;-70
2021/05/02 08:32:32;;;;;;;12.98;9.98;;;;;;;19.77;42.51;98744.19;5046671;28;20017;-70
2021/05/02 08:34:57;;;;;;;13.20;10.05;;;;;;;20.88;39.17;98741.38;5044340;28;20036;-70
2021/05/02 08:37:22;;;;;;;12.65;9.98;;;;;;;21.89;38.97;98748.00;5051473;28;20021;-70
2021/05/02 08:39:48;;;;;;;10.93;9.13;;;;;;;22.62;37.83;98738.38;5050827;28;20029;-70
2021/05/02 08:42:14;;;;;;;14.98;9.77;;;;;;;21.15;37.80;98754.91;5051199;28;20363;-77
2021/05/02 08:44:42;;;;;;;13.93;9.98;;;;;;;19.57;38.80;98750.34;5051496;28;20029;-73
2021/05/02 08:47:07;;;;;;;11.30;9.52;;;;;;;20.52;39.72;98763.25;5039262;28;20108;-72
2021/05/02 08:49:33;;;;;;;12.75;10.10;;;;;;;20.31;40.95;98759.59;5049628;28;20163;-73
2021/05/02 08:51:58;;;;;;;11.25;10.00;;;;;;;17.82;42.19;98771.41;5049011;28;20032;-72
2021/05/02 08:54:24;;;;;;;11.27;9.10;;;;;;;16.69;45.93;98768.63;5049614;28;20040;-74
2021/05/02 08:56:56;;;;;;;12.10;9.55;;;;;;;17.57;44.52;98760.88;5049030;28;20025;-73
2021/05/02 08:59:21;;;;;;;12.68;9.68;;;;;;;18.14;43.13;98746.94;5035033;28;20021;-72
2021/05/02 09:01:46;;;;;;;14.65;10.07;;;;;;;18.88;43.25;98764.81;5033921;28;20033;-70
2021/05/02 09:04:13;;;;;;;15.18;9.98;;;;;;;18.05;44.93;98764.91;5032531;28;20043;-69
2021/05/02 09:06:39;;;;;;;14.80;10.10;;;;;;;18.27;42.30;98766.84;5050192;28;20037;-70
2021/05/02 09:09:06;;;;;;;11.88;9.45;;;;;;;20.07;40.37;98765.53;5034649;28;20020;-70
2021/05/02 09:11:35;;;;;;;12.00;8.98;;;;;;;20.71;40.33;98752.63;5032819;28;20487;-70
2021/05/02 09:14:03;;;;;;;12.88;9.45;;;;;;;18.71;41.61;98764.06;5046717;28;20054;-71
2021/05/02 09:16:49;;;;;;;12.40;10.10;;;;;;;17.67;44.44;98768.41;5048324;28;20039;-71
2021/05/02 09:19:15;;;;;;;16.40;10.80;;;;;;;17.17;46.20;98761.06;5049238;28;20057;-70
2021/05/02 09:21:41;;;;;;;11.85;10.48;;;;;;;16.32;47.61;98749.91;5051325;28;20037;-72
2021/05/02 09:24:21;;;;;;;15.23;10.63;;;;;;;15.61;49.09;98761.94;5036718;28;20029;-73
2021/05/02 09:27:00;;;;;;;18.98;10.43;;;;;;;15.89;47.41;98777.59;5050792;28;20391;-70
2021/05/02 09:29:29;;;;;;;12.57;9.95;;;;;;;18.13;44.36;98756.25;5050440;28;20025;-73
2021/05/02 09:31:54;;;;;;;12.10;10.20;;;;;;;16.97;46.15;98756.06;5057441;28;20052;-70
2021/05/02 09:34:19;;;;;;;14.90;11.23;;;;;;;15.46;47.73;98752.34;5032735;28;20888;-70
2021/05/02 09:37:05;;;;;;;15.88;10.82;;;;;;;14.63;50.61;98781.25;5033338;28;20028;-72
2021/05/02 09:39:40;;;;;;;14.48;10.40;;;;;;;14.47;51.18;98779.16;5050539;28;20075;-71
2021/05/02 09:42:10;;;;;;;13.77;10.98;;;;;;;16.42;48.30;98766.47;5043348;28;20086;-72
2021/05/02 09:44:41;;;;;;;13.25;10.50;;;;;;;18.01;44.18;98741.03;5046871;28;20029;-71
2021/05/02 09:47:22;;;;;;;12.77;10.02;;;;;;;18.03;44.74;98771.72;5029053;28;20471;-72
2021/05/02 09:50:23;;;;;;;14.00;10.45;;;;;;;16.74;46.88;98768.75;5033584;28;20033;-73
2021/05/02 09:52:50;;;;;;;14.73;11.20;;;;;;;16.19;47.59;98761.91;5003674;28;20045;-69
2021/05/02 09:55:36;;;;;;;15.80;10.85;;;;;;;16.12;47.21;98774.03;5046142;28;20112;-68
2021/05/02 09:58:16;;;;;;;15.63;11.40;;;;;;;15.42;49.57;98783.03;5049668;28;20032;-71
2021/05/02 10:00:43;;;;;;;15.70;11.70;;;;;;;14.89;51.69;98795.56;5053765;28;20025;-71
2021/05/02 10:03:13;;;;;;;14.82;11.30;;;;;;;14.62;51.65;98774.16;5023886;28;20039;-72
2021/05/02 10:06:01;;;;;;;14.05;11.35;;;;;;;15.59;49.57;98780.41;5039306;28;20505;-71
2021/05/02 10:08:46;;;;;;;14.40;11.10;;;;;;;17.38;46.17;98781.38;5041436;28;20029;-71
2021/05/02 10:11:12;;;;;;;16.80;11.82;;;;;;;18.26;41.92;98767.91;5034018;28;20525;-72
2021/05/02 10:13:41;;;;;;;15.07;11.23;;;;;;;19.25;40.99;98767.63;5056847;28;20038;-72
2021/05/02 10:16:07;;;;;;;14.23;11.35;;;;;;;19.45;40.29;98772.47;5033905;28;20032;-72
2021/05/02 10:18:35;;;;;;;18.20;12.55;;;;;;;18.26;41.37;98770.63;5028617;28;20029;-72
2021/05/02 10:21:01;;;;;;;15.63;13.07;;;;;;;16.72;42.96;98770.88;5039118;28;20037;-72
2021/05/02 10:23:27;;;;;;;17.13;12.77;;;;;;;17.03;41.32;98769.56;5042950;28;20031;-71
2021/05/02 10:25:55;;;;;;;18.23;13.10;;;;;;;17.63;42.87;98772.72;5046742;28;20029;-72
2021/05/02 10:28:25;;;;;;;16.80;12.52;;;;;;;18.80;40.63;98777.06;5049608;28;20036;-71
2021/05/02 10:30:52;;;;;;;15.88;12.13;;;;;;;20.70;37.31;98754.53;5047650;28;20079;-71
2021/05/02 10:33:29;;;;;;;14.88;12.57;;;;;;;18.62;37.91;98766.41;5050395;28;20094;-73
2021/05/02 10:35:58;;;;;;;15.95;12.13;;;;;;;18.30;40.90;98766.31;5032143;28;20037;-72
2021/05/02 10:38:53;;;;;;;15.75;13.07;;;;;;;16.64;42.27;98772.09;5066662;28;20032;-72
2021/05/02 10:41:32;;;;;;;16.58;13.02;;;;;;;15.52;44.98;98775.09;5046105;28;20107;-72
2021/05/02 10:44:20;;;;;;;17.23;13.18;;;;;;;14.42;47.41;98787.16;5058986;28;20033;-72
2021/05/02 10:46:52;;;;;;;16.98;13.38;;;;;;;14.25;48.25;98784.22;5053060;28;20037;-73
2021/05/02 10:49:17;;;;;;;19.10;14.15;;;;;;;14.06;49.59;98790.72;5061236;28;20035;-73
2021/05/02 10:51:43;;;;;;;19.05;14.55;;;;;;;13.79;50.34;98791.84;5059025;28;20032;-72
2021/05/02 10:54:21;;;;;;;22.90;14.60;;;;;;;13.39;52.23;98780.50;5064880;28;20075;-73
2021/05/02 10:56:49;;;;;;;18.70;14.38;;;;;;;13.41;53.86;98785.72;5057699;28;20498;-72
2021/05/02 10:59:15;;;;;;;17.13;13.63;;;;;;;13.41;53.00;98796.59;5062384;28;20025;-72
2021/05/02 11:01:41;;;;;;;19.63;14.55;;;;;;;13.21;53.36;98788.56;5057378;28;20066;-72
2021/05/02 11:04:07;;;;;;;20.63;14.90;;;;;;;13.36;53.63;98811.69;5057552;28;20028;-72
2021/05/02 11:06:38;;;;;;;18.73;14.48;;;;;;;13.25;53.75;98812.34;5059327;28;20968;-72
2021/05/02 11:09:17;;;;;;;19.92;15.45;;;;;;;13.13;53.98;98814.13;5043072;28;20032;-72
2021/05/02 11:11:49;;;;;;;20.52;15.07;;;;;;;13.22;53.07;98815.50;5061841;28;20105;-71
2021/05/02 11:14:15;;;;;;;22.13;15.80;;;;;;;13.17;53.88;98826.19;5048371;28;20038;-71
2021/05/02 11:16:41;;;;;;;19.77;14.00;;;;;;;14.50;51.28;98818.69;5047514;28;20036;-71
2021/05/02 11:19:08;;;;;;;15.05;12.07;;;;;;;14.53;49.29;98821.00;5052739;28;20108;-71
2021/05/02 11:21:46;;;;;;;17.25;11.68;;;;;;;14.34;49.44;98823.69;5047544;28;20068;-71
2021/05/02 11:24:11;;;;;;;17.63;12.77;;;;;;;14.00;49.26;98827.84;5063212;28;20033;-72
2021/05/02 11:32:26;;;;;;;13.88;11.10;;;;;;;13.53;49.64;98835.59;5060324;28;20080;-71